Time;durP1;ratioP1;P1;durP2;ratioP2;P2;SDS_P1;SDS_P2;PMS_P1;PMS_P2;Temp;Humidity;BMP_temperature;BMP_pressure;BME280_temperature;BME280_humidity;BME280_pressure;Samples;Min_cycle;Max_cycle;Signal;HPM_P1;HPM_P2
2023/03/11 00:00:44;;;;;;;3.78;1.30;;;;;;;;;;5165160;27;20054;-62
2023/03/11 00:03:14;;;;;;;1.77;1.10;;;;;;;;;;5161738;27;20062;-62
2023/03/11 00:05:41;;;;;;;3.92;1.17;;;;;;;;;;5157587;27;20153;-61
2023/03/11 00:08:10;;;;;;;7.28;1.05;;;;;;;;;;5161039;27;20509;-61
2023/03/11 00:10:38;;;;;;;5.00;1.40;;;;;;;;;;5158223;27;20057;-62
2023/03/11 00:13:05;;;;;;;3.10;1.20;;;;;;;;;;5158934;27;20046;-62
2023/03/11 00:15:32;;;;;;;8.18;1.70;;;;;;;;;;5163220;27;20154;-63
2023/03/11 00:17:59;;;;;;;5.70;1.80;;;;;;;;;;5134782;27;20143;-63
2023/03/11 00:20:30;;;;;;;3.38;1.10;;;;;;;;;;5151610;27;20112;-61
2023/03/11 00:22:56;;;;;;;14.20;2.42;;;;;;;;;;5154161;27;20053;-61
2023/03/11 00:25:23;;;;;;;9.50;2.65;;;;;;;;;;5148871;27;20152;-61
2023/03/11 00:27:50;;;;;;;7.65;1.30;;;;;;;;;;5147720;27;20052;-61
2023/03/11 00:30:17;;;;;;;6.57;1.17;;;;;;;;;;5159278;27;20055;-62
2023/03/11 00:32:43;;;;;;;2.97;0.95;;;;;;;;;;5150875;27;20055;-62
2023/03/11 00:35:12;;;;;;;6.45;1.42;;;;;;;;;;5157190;27;20546;-61
2023/03/11 00:37:38;;;;;;;3.60;1.40;;;;;;;;;;5162912;27;20058;-62
2023/03/11 00:40:09;;;;;;;3.63;1.02;;;;;;;;;;5157242;27;20062;-61
2023/03/11 00:42:36;;;;;;;4.25;0.93;;;;;;;;;;5144837;27;20058;-63
2023/03/11 00:45:02;;;;;;;1.45;0.90;;;;;;;;;;5145230;27;20051;-63
2023/03/11 00:47:28;;;;;;;5.40;1.15;;;;;;;;;;5129086;27;20045;-61
2023/03/11 00:49:55;;;;;;;4.88;1.42;;;;;;;;;;5154663;27;20475;-63
2023/03/11 00:52:21;;;;;;;4.13;1.23;;;;;;;;;;5141744;27;20549;-62
2023/03/11 00:54:48;;;;;;;6.07;1.23;;;;;;;;;;5157132;27;20078;-61
2023/03/11 00:57:14;;;;;;;3.90;2.47;;;;;;;;;;5162471;27;20198;-61
2023/03/11 00:59:40;;;;;;;6.22;1.55;;;;;;;;;;5161591;27;20074;-61
2023/03/11 01:02:06;;;;;;;6.88;1.65;;;;;;;;;;5154401;27;20521;-63
2023/03/11 01:04:33;;;;;;;5.93;1.40;;;;;;;;;;5160592;27;20051;-62
2023/03/11 01:07:00;;;;;;;5.32;1.00;;;;;;;;;;5151388;27;20604;-62
2023/03/11 01:09:26;;;;;;;5.10;1.40;;;;;;;;;;5106218;27;20166;-62
2023/03/11 01:11:53;;;;;;;7.00;4.68;;;;;;;;;;5117875;27;20138;-61
2023/03/11 01:14:19;;;;;;;7.97;2.10;;;;;;;;;;5104308;27;20645;-61
2023/03/11 01:16:45;;;;;;;5.97;1.20;;;;;;;;;;5120418;27;20482;-61
2023/03/11 01:19:12;;;;;;;3.67;1.95;;;;;;;;;;5114713;27;20043;-61
2023/03/11 01:21:39;;;;;;;2.65;2.20;;;;;;;;;;5116148;27;20580;-63
2023/03/11 01:24:05;;;;;;;5.32;1.70;;;;;;;;;;5114912;27;20059;-61
2023/03/11 01:26:32;;;;;;;4.97;1.17;;;;;;;;;;5110938;27;20083;-63
2023/03/11 01:28:58;;;;;;;2.88;1.55;;;;;;;;;;5115253;27;20128;-62
2023/03/11 01:31:24;;;;;;;9.02;5.50;;;;;;;;;;5113964;27;20056;-63
2023/03/11 01:33:51;;;;;;;4.45;2.05;;;;;;;;;;5113604;27;20052;-63
2023/03/11 01:36:17;;;;;;;11.63;6.40;;;;;;;;;;5111207;27;20052;-63
2023/03/11 01:38:43;;;;;;;31.60;24.55;;;;;;;;;;5137293;27;20123;-62
2023/03/11 01:41:10;;;;;;;10.05;6.28;;;;;;;;;;5106450;27;20056;-63
2023/03/11 01:43:42;;;;;;;7.20;2.47;;;;;;;;;;5106379;27;20056;-61
2023/03/11 01:46:12;;;;;;;7.40;2.70;;;;;;;;;;5109619;27;20130;-62
2023/03/11 01:48:39;;;;;;;5.05;1.75;;;;;;;;;;5112195;27;20048;-63
2023/03/11 01:51:05;;;;;;;6.70;4.40;;;;;;;;;;5118548;27;20142;-64
2023/03/11 01:53:32;;;;;;;5.05;3.47;;;;;;;;;;5118699;27;20047;-63
2023/03/11 01:56:00;;;;;;;5.65;2.75;;;;;;;;;;5114385;27;20055;-61
2023/03/11 01:58:29;;;;;;;9.60;2.28;;;;;;;;;;5113467;27;20626;-63
2023/03/11 02:00:56;;;;;;;8.23;2.25;;;;;;;;;;5111673;27;20060;-62
2023/03/11 02:03:30;;;;;;;5.13;1.73;;;;;;;;;;5103253;27;20563;-62
2023/03/11 02:06:00;;;;;;;2.90;1.02;;;;;;;;;;5115688;27;20051;-63
2023/03/11 02:08:26;;;;;;;8.00;1.85;;;;;;;;;;5143055;27;20159;-62
2023/03/11 02:10:53;;;;;;;4.70;2.10;;;;;;;;;;5155525;27;20422;-62
2023/03/11 02:13:19;;;;;;;5.20;1.80;;;;;;;;;;5149122;27;20072;-62
2023/03/11 02:15:46;;;;;;;4.22;1.20;;;;;;;;;;5157870;27;20542;-62
2023/03/11 02:18:17;;;;;;;3.92;1.65;;;;;;;;;;5157939;27;20571;-61
2023/03/11 02:20:48;;;;;;;4.03;1.67;;;;;;;;;;5156343;27;20138;-62
2023/03/11 02:23:16;;;;;;;2.40;1.38;;;;;;;;;;5158427;27;20439;-62
2023/03/11 02:26:21;;;;;;;2.08;1.30;;;;;;;;;;5151857;27;20042;-62
2023/03/11 02:28:47;;;;;;;1.70;1.00;;;;;;;;;;5077322;28;20224;-62
2023/03/11 02:31:14;;;;;;;5.30;1.20;;;;;;;;;;5076474;28;20087;-62
2023/03/11 02:33:42;;;;;;;3.22;0.98;;;;;;;;;;5077533;28;20049;-62
2023/03/11 02:36:29;;;;;;;5.63;1.40;;;;;;;;;;5077837;28;20490;-62
2023/03/11 02:38:55;;;;;;;3.72;1.00;;;;;;;;;;5076901;28;20047;-63
2023/03/11 02:41:22;;;;;;;5.43;1.13;;;;;;;;;;5074756;28;20544;-61
2023/03/11 02:43:48;;;;;;;5.05;1.00;;;;;;;;;;5077342;28;20143;-63
2023/03/11 02:46:14;;;;;;;3.65;0.85;;;;;;;;;;5075447;28;20135;-62
2023/03/11 02:48:42;;;;;;;9.88;1.30;;;;;;;;;;5080058;28;20056;-62
2023/03/11 02:51:08;;;;;;;8.25;1.90;;;;;;;;;;5079472;28;20083;-63
2023/03/11 02:53:37;;;;;;;2.40;1.58;;;;;;;;;;5080369;28;20055;-62
2023/03/11 02:56:04;;;;;;;3.17;1.48;;;;;;;;;;5078897;28;20048;-61
2023/03/11 02:58:30;;;;;;;1.52;0.90;;;;;;;;;;5083004;27;20079;-62
2023/03/11 03:00:57;;;;;;;2.38;1.02;;;;;;;;;;5152907;27;20530;-63
2023/03/11 03:03:24;;;;;;;3.58;1.00;;;;;;;;;;5150765;27;20107;-63
2023/03/11 03:05:50;;;;;;;8.77;1.35;;;;;;;;;;5157942;27;20568;-61
2023/03/11 03:08:17;;;;;;;5.97;1.05;;;;;;;;;;5155081;27;20047;-61
2023/03/11 03:10:43;;;;;;;6.95;1.70;;;;;;;;;;5147184;27;20050;-61
2023/03/11 03:13:09;;;;;;;5.13;1.33;;;;;;;;;;5133210;27;20452;-63
2023/03/11 03:15:36;;;;;;;3.47;1.25;;;;;;;;;;5152669;27;20054;-63
2023/03/11 03:18:02;;;;;;;4.53;1.10;;;;;;;;;;5161629;27;20047;-62
2023/03/11 03:20:29;;;;;;;5.47;1.25;;;;;;;;;;5154672;27;20516;-63
2023/03/11 03:22:55;;;;;;;4.78;1.00;;;;;;;;;;5162954;27;20051;-62
2023/03/11 03:25:22;;;;;;;3.97;0.98;;;;;;;;;;5154633;27;20051;-62
2023/03/11 03:27:48;;;;;;;6.95;0.90;;;;;;;;;;5160083;27;20050;-63
2023/03/11 03:30:15;;;;;;;6.72;1.50;;;;;;;;;;5161074;27;20051;-62
2023/03/11 03:32:41;;;;;;;4.97;0.93;;;;;;;;;;5163493;27;20046;-63
2023/03/11 03:35:08;;;;;;;3.10;0.90;;;;;;;;;;5154300;27;20416;-62
2023/03/11 03:37:36;;;;;;;13.80;2.25;;;;;;;;;;5153865;27;20561;-62
2023/03/11 03:40:06;;;;;;;3.65;0.90;;;;;;;;;;5165834;27;20046;-62
2023/03/11 03:42:34;;;;;;;5.82;0.98;;;;;;;;;;5156163;27;20135;-63
2023/03/11 03:45:00;;;;;;;15.63;1.00;;;;;;;;;;5153749;27;20047;-62
2023/03/11 03:47:27;;;;;;;1.15;0.65;;;;;;;;;;5156979;27;20054;-61
2023/03/11 03:49:53;;;;;;;4.55;1.73;;;;;;;;;;5153364;27;20131;-62
2023/03/11 03:52:20;;;;;;;1.60;0.90;;;;;;;;;;5154346;27;20079;-62
2023/03/11 03:54:46;;;;;;;4.97;0.95;;;;;;;;;;5150194;27;20138;-63
2023/03/11 03:57:12;;;;;;;2.08;0.80;;;;;;;;;;5155329;27;20092;-63
2023/03/11 03:59:39;;;;;;;2.75;1.00;;;;;;;;;;5159911;27;20461;-62
2023/03/11 04:02:05;;;;;;;2.15;1.08;;;;;;;;;;5147190;27;20237;-61
2023/03/11 04:04:32;;;;;;;3.05;0.90;;;;;;;;;;5163701;27;20492;-63
2023/03/11 04:06:58;;;;;;;2.47;1.05;;;;;;;;;;5164285;27;20055;-62
2023/03/11 04:09:25;;;;;;;6.13;0.85;;;;;;;;;;5158462;27;20532;-61
2023/03/11 04:11:51;;;;;;;2.30;1.05;;;;;;;;;;5128454;27;20444;-62
2023/03/11 04:14:17;;;;;;;3.00;1.00;;;;;;;;;;5156265;27;20046;-63
2023/03/11 04:16:44;;;;;;;2.70;1.30;;;;;;;;;;5155330;27;20423;-61
2023/03/11 04:19:10;;;;;;;8.98;1.40;;;;;;;;;;5161563;27;20513;-62
2023/03/11 04:21:37;;;;;;;2.55;1.67;;;;;;;;;;5153497;27;20139;-61
2023/03/11 04:24:03;;;;;;;2.20;1.05;;;;;;;;;;5163181;27;20057;-62
2023/03/11 04:26:30;;;;;;;7.85;1.20;;;;;;;;;;5155802;27;20047;-62
2023/03/11 04:28:56;;;;;;;0.93;0.70;;;;;;;;;;5155943;27;20061;-62
2023/03/11 04:31:23;;;;;;;3.55;1.27;;;;;;;;;;5163046;27;20184;-63
2023/03/11 04:33:49;;;;;;;6.35;1.77;;;;;;;;;;5153477;27;20050;-63
2023/03/11 04:36:15;;;;;;;3.55;1.00;;;;;;;;;;5152806;27;20433;-63
2023/03/11 04:38:44;;;;;;;6.38;1.40;;;;;;;;;;5162866;27;20054;-63
2023/03/11 04:41:11;;;;;;;2.25;0.95;;;;;;;;;;5163554;27;20055;-60
2023/03/11 04:43:37;;;;;;;1.95;1.10;;;;;;;;;;5161744;27;20379;-62
2023/03/11 04:46:04;;;;;;;2.88;0.65;;;;;;;;;;5163027;27;20043;-63
2023/03/11 04:48:30;;;;;;;1.10;0.75;;;;;;;;;;5148961;27;20142;-63
2023/03/11 04:50:56;;;;;;;5.45;1.85;;;;;;;;;;5147192;27;20057;-64
2023/03/11 04:53:23;;;;;;;5.97;1.40;;;;;;;;;;5145323;27;20535;-63
2023/03/11 04:55:49;;;;;;;6.85;1.70;;;;;;;;;;5150950;27;20660;-62
2023/03/11 04:58:16;;;;;;;6.45;1.35;;;;;;;;;;5153497;27;20193;-62
2023/03/11 05:00:42;;;;;;;3.50;1.10;;;;;;;;;;5159594;27;20535;-62
2023/03/11 05:03:09;;;;;;;4.25;0.98;;;;;;;;;;5158441;27;20134;-63
2023/03/11 05:05:35;;;;;;;7.10;1.15;;;;;;;;;;5139098;27;20053;-62
2023/03/11 05:08:02;;;;;;;5.05;1.23;;;;;;;;;;5148870;27;20061;-63
2023/03/11 05:10:29;;;;;;;1.50;0.88;;;;;;;;;;5149537;27;20051;-63
2023/03/11 05:12:57;;;;;;;2.58;1.00;;;;;;;;;;5160893;27;20489;-62
2023/03/11 05:15:23;;;;;;;6.63;1.27;;;;;;;;;;5157985;27;20050;-62
2023/03/11 05:17:49;;;;;;;4.90;1.25;;;;;;;;;;5156969;27;21208;-63
2023/03/11 05:20:16;;;;;;;4.65;1.08;;;;;;;;;;5143575;27;20478;-62
2023/03/11 05:22:42;;;;;;;5.72;1.40;;;;;;;;;;5147293;27;20053;-62
2023/03/11 05:25:09;;;;;;;3.28;1.10;;;;;;;;;;5164379;27;20054;-63
2023/03/11 05:27:35;;;;;;;3.63;0.80;;;;;;;;;;5157034;27;20142;-63
2023/03/11 05:30:02;;;;;;;7.38;1.52;;;;;;;;;;5163534;27;20523;-62
2023/03/11 05:32:28;;;;;;;1.73;1.00;;;;;;;;;;5157924;27;20061;-63
2023/03/11 05:34:55;;;;;;;1.10;0.95;;;;;;;;;;5162343;27;20075;-62
2023/03/11 05:37:21;;;;;;;3.65;1.00;;;;;;;;;;5139460;27;20520;-62
2023/03/11 05:39:47;;;;;;;10.77;1.92;;;;;;;;;;5149374;27;20052;-62
2023/03/11 05:42:14;;;;;;;1.55;0.75;;;;;;;;;;5153228;27;20156;-62
2023/03/11 05:44:40;;;;;;;4.53;1.02;;;;;;;;;;5162734;27;20047;-62
2023/03/11 05:47:07;;;;;;;2.90;0.95;;;;;;;;;;5141397;27;20670;-61
2023/03/11 05:49:33;;;;;;;1.13;0.93;;;;;;;;;;5149523;27;20149;-63
2023/03/11 05:52:00;;;;;;;4.97;1.00;;;;;;;;;;5158371;27;20515;-62
2023/03/11 05:54:26;;;;;;;5.60;1.20;;;;;;;;;;5156951;27;20188;-63
2023/03/11 05:56:52;;;;;;;2.42;1.10;;;;;;;;;;5151206;27;20592;-62
2023/03/11 05:59:19;;;;;;;1.95;1.30;;;;;;;;;;5150329;27;20443;-63
2023/03/11 06:01:45;;;;;;;3.60;1.38;;;;;;;;;;5160222;27;20558;-62
2023/03/11 06:04:12;;;;;;;3.53;0.95;;;;;;;;;;5157230;27;20066;-63
2023/03/11 06:06:40;;;;;;;3.80;1.17;;;;;;;;;;5161029;27;20104;-63
2023/03/11 06:09:10;;;;;;;1.45;0.80;;;;;;;;;;5157948;27;20366;-62
2023/03/11 06:11:36;;;;;;;6.70;1.10;;;;;;;;;;5150609;27;20687;-62
2023/03/11 06:14:02;;;;;;;6.03;1.10;;;;;;;;;;5159607;27;20047;-62
2023/03/11 06:16:29;;;;;;;2.67;0.82;;;;;;;;;;5159705;27;20055;-62
2023/03/11 06:18:55;;;;;;;3.38;1.10;;;;;;;;;;5151874;27;20069;-62
2023/03/11 06:21:23;;;;;;;7.10;1.40;;;;;;;;;;5149812;27;20213;-62
2023/03/11 06:23:49;;;;;;;8.15;1.27;;;;;;;;;;5155135;27;20320;-63
2023/03/11 06:26:17;;;;;;;4.20;1.30;;;;;;;;;;5155712;27;20107;-62
2023/03/11 06:28:44;;;;;;;3.45;1.23;;;;;;;;;;5162764;27;20108;-62
2023/03/11 06:31:13;;;;;;;3.45;0.98;;;;;;;;;;5158126;27;20142;-62
2023/03/11 06:33:39;;;;;;;2.67;1.48;;;;;;;;;;5159555;27;20578;-62
2023/03/11 06:36:06;;;;;;;1.30;1.13;;;;;;;;;;5160121;27;20051;-62
2023/03/11 06:38:33;;;;;;;3.45;1.40;;;;;;;;;;5162127;27;20452;-63
2023/03/11 06:41:03;;;;;;;2.15;0.95;;;;;;;;;;5163554;27;20047;-63
2023/03/11 06:43:30;;;;;;;4.57;1.30;;;;;;;;;;5157555;27;20054;-62
2023/03/11 06:45:57;;;;;;;11.43;1.20;;;;;;;;;;5157048;27;20575;-62
2023/03/11 06:48:24;;;;;;;9.13;1.45;;;;;;;;;;5162340;27;20047;-62
2023/03/11 06:50:57;;;;;;;3.67;1.50;;;;;;;;;;5157319;27;20111;-63
2023/03/11 06:53:24;;;;;;;7.13;1.50;;;;;;;;;;5150399;27;20084;-61
2023/03/11 06:56:19;;;;;;;5.88;1.58;;;;;;;;;;5154303;27;20061;-63
2023/03/11 06:58:46;;;;;;;2.67;1.35;;;;;;;;;;5144235;27;20047;-62
2023/03/11 07:01:14;;;;;;;4.82;1.48;;;;;;;;;;5160713;27;20063;-62
2023/03/11 07:03:41;;;;;;;2.88;1.27;;;;;;;;;;5152846;27;20598;-62
2023/03/11 07:06:12;;;;;;;4.50;1.55;;;;;;;;;;5145996;27;20087;-62
2023/03/11 07:08:38;;;;;;;6.38;1.55;;;;;;;;;;5132011;27;20059;-61
2023/03/11 07:11:09;;;;;;;2.67;1.50;;;;;;;;;;5140636;27;20066;-61
2023/03/11 07:13:35;;;;;;;5.82;2.28;;;;;;;;;;5125478;27;20074;-62
2023/03/11 07:16:10;;;;;;;3.05;1.63;;;;;;;;;;5139489;27;20051;-63
2023/03/11 07:18:37;;;;;;;6.80;1.90;;;;;;;;;;5131517;27;20050;-62
2023/03/11 07:21:04;;;;;;;3.33;1.45;;;;;;;;;;5125850;27;20061;-63
2023/03/11 07:23:30;;;;;;;3.33;1.70;;;;;;;;;;5127198;27;20525;-61
2023/03/11 07:25:57;;;;;;;3.65;1.58;;;;;;;;;;5137346;27;20686;-62
2023/03/11 07:28:25;;;;;;;6.38;1.48;;;;;;;;;;5127376;27;20047;-63
2023/03/11 07:30:52;;;;;;;3.35;1.50;;;;;;;;;;5128801;27;20083;-62
2023/03/11 07:33:18;;;;;;;4.57;2.03;;;;;;;;;;5125455;27;20518;-63
2023/03/11 07:35:45;;;;;;;4.07;1.85;;;;;;;;;;5138671;27;20516;-62
2023/03/11 07:38:11;;;;;;;3.60;1.63;;;;;;;;;;5145206;27;20100;-62
2023/03/11 07:40:38;;;;;;;4.47;1.75;;;;;;;;;;5142728;27;20051;-63
2023/03/11 07:43:04;;;;;;;5.63;1.70;;;;;;;;;;5142384;27;20052;-63
2023/03/11 07:45:31;;;;;;;3.38;1.63;;;;;;;;;;5138331;27;20699;-62
2023/03/11 07:47:57;;;;;;;5.90;1.45;;;;;;;;;;5135054;27;20560;-63
2023/03/11 07:50:24;;;;;;;5.68;1.77;;;;;;;;;;5132860;27;20534;-62
2023/03/11 07:52:50;;;;;;;2.05;1.52;;;;;;;;;;5143768;27;20493;-63
2023/03/11 07:55:17;;;;;;;3.15;1.90;;;;;;;;;;5140033;27;20047;-62
2023/03/11 07:57:45;;;;;;;4.00;1.70;;;;;;;;;;5125413;27;20524;-62
2023/03/11 08:00:12;;;;;;;5.50;1.70;;;;;;;;;;5123724;27;20048;-63
2023/03/11 08:02:38;;;;;;;6.25;1.80;;;;;;;;;;5127601;27;20095;-62
2023/03/11 08:05:05;;;;;;;3.80;1.67;;;;;;;;;;5142512;27;20055;-62
2023/03/11 08:07:32;;;;;;;6.13;1.70;;;;;;;;;;5142670;27;20075;-63
2023/03/11 08:09:58;;;;;;;3.95;1.70;;;;;;;;;;5150767;27;20051;-62
2023/03/11 08:12:25;;;;;;;2.58;1.20;;;;;;;;;;5151077;27;20059;-62
2023/03/11 08:14:51;;;;;;;3.08;1.27;;;;;;;;;;5147865;27;20402;-61
2023/03/11 08:17:18;;;;;;;4.68;1.35;;;;;;;;;;5147347;27;20047;-61
2023/03/11 08:19:44;;;;;;;3.80;1.20;;;;;;;;;;5153021;27;20051;-61
2023/03/11 08:22:10;;;;;;;7.85;1.38;;;;;;;;;;5156269;27;20069;-61
2023/03/11 08:24:37;;;;;;;13.45;2.20;;;;;;;;;;5164798;27;20512;-61
2023/03/11 08:27:04;;;;;;;3.53;1.48;;;;;;;;;;5157644;27;20053;-62
2023/03/11 08:29:30;;;;;;;7.00;1.42;;;;;;;;;;5161420;27;21370;-62
2023/03/11 08:31:57;;;;;;;3.38;1.40;;;;;;;;;;5154640;27;20579;-62
2023/03/11 08:34:26;;;;;;;2.15;1.02;;;;;;;;;;5155901;27;20550;-62
2023/03/11 08:36:52;;;;;;;2.63;0.98;;;;;;;;;;5164947;27;20042;-62
2023/03/11 08:39:19;;;;;;;4.60;1.60;;;;;;;;;;5165073;27;20528;-62
2023/03/11 08:41:45;;;;;;;2.00;1.00;;;;;;;;;;5148754;27;20101;-62
2023/03/11 08:44:12;;;;;;;2.58;1.00;;;;;;;;;;5155954;27;20142;-61
2023/03/11 08:46:38;;;;;;;1.38;0.85;;;;;;;;;;5159728;27;20093;-61
2023/03/11 08:49:05;;;;;;;5.53;1.00;;;;;;;;;;5160476;27;20069;-61
2023/03/11 08:51:32;;;;;;;1.95;0.90;;;;;;;;;;5163748;27;20078;-62
2023/03/11 08:53:58;;;;;;;1.30;0.70;;;;;;;;;;5151900;27;20050;-61
2023/03/11 08:56:25;;;;;;;2.88;0.93;;;;;;;;;;5157021;27;20047;-62
2023/03/11 08:58:51;;;;;;;2.40;1.33;;;;;;;;;;5156371;27;20051;-61
2023/03/11 09:01:19;;;;;;;4.50;1.30;;;;;;;;;;5157942;27;20058;-61
2023/03/11 09:03:45;;;;;;;5.38;1.10;;;;;;;;;;5153783;27;20426;-62
2023/03/11 09:06:14;;;;;;;2.00;1.15;;;;;;;;;;5153113;27;20049;-61
2023/03/11 09:08:43;;;;;;;3.58;1.10;;;;;;;;;;5161527;27;20074;-60
2023/03/11 09:11:12;;;;;;;2.50;0.73;;;;;;;;;;5165170;27;20053;-61
2023/03/11 09:13:39;;;;;;;5.57;1.02;;;;;;;;;;5163707;27;20057;-62
2023/03/11 09:16:07;;;;;;;0.80;0.70;;;;;;;;;;5165802;27;20111;-61
2023/03/11 09:18:34;;;;;;;1.83;0.63;;;;;;;;;;5160027;27;20207;-60
2023/03/11 09:21:00;;;;;;;3.25;0.90;;;;;;;;;;5150686;27;20122;-60
2023/03/11 09:23:27;;;;;;;1.38;0.50;;;;;;;;;;5159274;27;20051;-60
2023/03/11 09:25:53;;;;;;;8.18;0.73;;;;;;;;;;5154491;27;20102;-60
2023/03/11 09:28:20;;;;;;;3.58;0.60;;;;;;;;;;5152431;27;20121;-61
2023/03/11 09:30:46;;;;;;;4.65;0.75;;;;;;;;;;5154062;27;20432;-61
2023/03/11 09:33:12;;;;;;;2.85;0.60;;;;;;;;;;5156663;27;20197;-62
2023/03/11 09:35:39;;;;;;;2.60;0.77;;;;;;;;;;5154846;27;20621;-62
2023/03/11 09:38:05;;;;;;;1.52;0.60;;;;;;;;;;5150000;27;20051;-61
2023/03/11 09:40:39;;;;;;;4.22;0.88;;;;;;;;;;5152981;27;20047;-60
2023/03/11 09:43:15;;;;;;;5.40;0.93;;;;;;;;;;5152525;27;21911;-61
2023/03/11 09:45:46;;;;;;;1.17;0.85;;;;;;;;;;5158567;27;20060;-62
2023/03/11 09:48:28;;;;;;;3.05;0.85;;;;;;;;;;5163632;27;20046;-61
2023/03/11 09:50:54;;;;;;;5.07;0.80;;;;;;;;;;5162999;27;20042;-61
2023/03/11 09:53:21;;;;;;;1.27;0.70;;;;;;;;;;5164629;27;20054;-62
2023/03/11 09:55:49;;;;;;;1.77;0.60;;;;;;;;;;5162368;27;20043;-60
2023/03/11 09:58:30;;;;;;;0.80;0.57;;;;;;;;;;5164541;27;20061;-61
2023/03/11 10:00:56;;;;;;;0.50;0.50;;;;;;;;;;5145715;27;20058;-60
2023/03/11 10:03:31;;;;;;;6.45;0.80;;;;;;;;;;5155451;27;20050;-61
2023/03/11 10:06:02;;;;;;;1.67;0.75;;;;;;;;;;5154737;27;20493;-60
2023/03/11 10:08:38;;;;;;;1.75;0.80;;;;;;;;;;5145796;27;20060;-60
2023/03/11 10:11:21;;;;;;;4.15;1.20;;;;;;;;;;5146147;27;20072;-61
2023/03/11 10:14:08;;;;;;;3.38;0.68;;;;;;;;;;5159123;27;20050;-60
2023/03/11 10:16:53;;;;;;;4.40;1.15;;;;;;;;;;5102748;27;20051;-62
2023/03/11 10:19:22;;;;;;;2.15;0.70;;;;;;;;;;5152885;27;20043;-60
2023/03/11 10:21:56;;;;;;;6.13;1.10;;;;;;;;;;5148069;27;20077;-60
2023/03/11 10:24:28;;;;;;;1.00;0.70;;;;;;;;;;5157466;27;20104;-60
2023/03/11 10:26:57;;;;;;;3.00;0.70;;;;;;;;;;5164510;27;20503;-60
2023/03/11 10:29:26;;;;;;;3.60;0.90;;;;;;;;;;5157172;27;20050;-62
2023/03/11 10:31:56;;;;;;;3.47;1.00;;;;;;;;;;5160889;27;20508;-61
2023/03/11 10:34:26;;;;;;;2.92;0.73;;;;;;;;;;5152822;27;20053;-60
2023/03/11 10:37:00;;;;;;;9.40;0.98;;;;;;;;;;5163650;27;20058;-61
2023/03/11 10:39:27;;;;;;;1.55;0.70;;;;;;;;;;5164691;27;20523;-61
2023/03/11 10:41:56;;;;;;;1.60;0.95;;;;;;;;;;5150465;27;20594;-61
2023/03/11 10:44:31;;;;;;;1.58;0.68;;;;;;;;;;5163381;27;20055;-61
2023/03/11 10:46:57;;;;;;;;;;;;;;;;;;5163258;27;20498;-60
2023/03/11 10:49:24;;;;;;;2.17;0.70;;;;;;;;;;5161928;27;46516;-61
2023/03/11 10:51:51;;;;;;;5.88;1.60;;;;;;;;;;5161562;27;20138;-60
2023/03/11 10:54:28;;;;;;;5.32;1.10;;;;;;;;;;5146689;27;20104;-61
2023/03/11 10:56:57;;;;;;;4.57;0.98;;;;;;;;;;5151609;27;20317;-63
2023/03/11 10:59:34;;;;;;;5.05;1.08;;;;;;;;;;5158554;27;20130;-61
2023/03/11 11:02:01;;;;;;;5.60;1.20;;;;;;;;;;5164061;27;20043;-61
2023/03/11 11:04:35;;;;;;;5.07;0.80;;;;;;;;;;5158305;27;20054;-62
2023/03/11 11:07:21;;;;;;;7.20;0.73;;;;;;;;;;5153699;27;20521;-61
2023/03/11 11:10:07;;;;;;;2.72;0.82;;;;;;;;;;5147927;27;20452;-60
2023/03/11 11:12:33;;;;;;;3.63;1.20;;;;;;;;;;5163822;27;20058;-60
2023/03/11 11:15:00;;;;;;;2.63;0.85;;;;;;;;;;5166814;27;20062;-61
2023/03/11 11:17:28;;;;;;;3.15;0.70;;;;;;;;;;5148589;27;20554;-61
2023/03/11 11:19:56;;;;;;;3.33;1.13;;;;;;;;;;5147668;27;20896;-61
2023/03/11 11:22:24;;;;;;;3.08;1.10;;;;;;;;;;5160968;27;20593;-61
2023/03/11 11:24:52;;;;;;;6.50;1.77;;;;;;;;;;5154648;27;20382;-61
2023/03/11 11:27:23;;;;;;;1.30;0.80;;;;;;;;;;5143158;27;20057;-60
2023/03/11 11:30:08;;;;;;;4.80;0.90;;;;;;;;;;5158897;27;20059;-61
2023/03/11 11:32:35;;;;;;;7.93;0.97;;;;;;;;;;5127164;27;20638;-60
2023/03/11 11:35:02;;;;;;;2.58;0.88;;;;;;;;;;5163925;27;20051;-60
2023/03/11 11:37:33;;;;;;;6.15;0.80;;;;;;;;;;5153450;27;20050;-61
2023/03/11 11:40:08;;;;;;;3.08;0.82;;;;;;;;;;5149614;27;20081;-61
2023/03/11 11:42:37;;;;;;;2.38;0.60;;;;;;;;;;5163963;27;20130;-60
2023/03/11 11:45:09;;;;;;;3.55;0.75;;;;;;;;;;5166658;27;20515;-61
2023/03/11 11:47:38;;;;;;;2.42;0.93;;;;;;;;;;5163412;27;20599;-60
2023/03/11 11:50:06;;;;;;;7.10;1.23;;;;;;;;;;5164761;27;20042;-61
2023/03/11 11:52:41;;;;;;;2.53;0.95;;;;;;;;;;5147023;27;20063;-60
2023/03/11 11:55:15;;;;;;;1.90;0.90;;;;;;;;;;5157971;27;20051;-62
2023/03/11 11:57:42;;;;;;;17.95;1.77;;;;;;;;;;5147630;27;20195;-61
2023/03/11 12:00:35;;;;;;;2.42;0.90;;;;;;;;;;5161502;27;20043;-64
2023/03/11 12:03:04;;;;;;;3.08;0.88;;;;;;;;;;5111243;27;20073;-62
2023/03/11 12:05:32;;;;;;;1.30;0.80;;;;;;;;;;5147132;27;20057;-62
2023/03/11 12:08:08;;;;;;;2.53;0.75;;;;;;;;;;5144727;27;20521;-63
2023/03/11 12:10:55;;;;;;;3.35;1.00;;;;;;;;;;5146175;27;20047;-64
2023/03/11 12:13:40;;;;;;;4.57;1.30;;;;;;;;;;5162936;27;20050;-64
2023/03/11 12:16:22;;;;;;;9.50;0.93;;;;;;;;;;5164067;27;20227;-63
2023/03/11 12:18:55;;;;;;;2.40;0.75;;;;;;;;;;5152140;27;20449;-63
2023/03/11 12:21:26;;;;;;;3.03;0.95;;;;;;;;;;5160756;27;20527;-63
2023/03/11 12:24:11;;;;;;;3.20;0.80;;;;;;;;;;5139359;27;20061;-63
2023/03/11 12:26:41;;;;;;;2.60;1.15;;;;;;;;;;5147254;27;20530;-64
2023/03/11 12:29:08;;;;;;;7.90;1.48;;;;;;;;;;5148610;27;20112;-62
2023/03/11 12:31:37;;;;;;;5.05;1.00;;;;;;;;;;5165135;27;20050;-63
2023/03/11 12:34:06;;;;;;;3.70;1.52;;;;;;;;;;5164865;27;20519;-63
2023/03/11 12:36:34;;;;;;;5.07;0.65;;;;;;;;;;5157107;27;20127;-64
2023/03/11 12:39:04;;;;;;;1.67;0.60;;;;;;;;;;5131993;27;20047;-65
2023/03/11 12:41:37;;;;;;;3.40;1.15;;;;;;;;;;5161371;27;20493;-63
2023/03/11 12:44:20;;;;;;;3.47;0.75;;;;;;;;;;5139606;27;20054;-63
2023/03/11 12:46:53;;;;;;;4.43;0.80;;;;;;;;;;5159095;27;20425;-63
2023/03/11 12:49:23;;;;;;;3.92;0.80;;;;;;;;;;5149130;27;20047;-64
2023/03/11 12:52:00;;;;;;;3.53;0.98;;;;;;;;;;5158772;27;20061;-62
2023/03/11 12:54:26;;;;;;;1.40;0.75;;;;;;;;;;5149858;27;20488;-63
2023/03/11 12:56:57;;;;;;;3.22;0.95;;;;;;;;;;5160331;27;20051;-63
2023/03/11 12:59:43;;;;;;;1.40;0.90;;;;;;;;;;5158115;27;20046;-63
2023/03/11 13:02:22;;;;;;;5.88;1.02;;;;;;;;;;5145291;27;20046;-63
2023/03/11 13:04:55;;;;;;;4.95;1.13;;;;;;;;;;5159980;27;20133;-63
2023/03/11 13:07:21;;;;;;;1.73;0.80;;;;;;;;;;5165299;27;20229;-64
2023/03/11 13:10:01;;;;;;;1.40;0.70;;;;;;;;;;5165837;27;20497;-63
2023/03/11 13:12:42;;;;;;;1.17;0.70;;;;;;;;;;5155197;27;20133;-63
2023/03/11 13:15:29;;;;;;;1.25;0.50;;;;;;;;;;5162153;27;20053;-63
2023/03/11 13:17:59;;;;;;;2.20;0.90;;;;;;;;;;5155960;27;20059;-61
2023/03/11 13:20:38;;;;;;;1.83;0.52;;;;;;;;;;5145192;27;20055;-61
2023/03/11 13:23:13;;;;;;;2.13;1.13;;;;;;;;;;5152229;27;20608;-62
2023/03/11 13:25:40;;;;;;;;;;;;;;;;;;5148485;27;20523;-61
2023/03/11 13:28:25;;;;;;;1.55;0.60;;;;;;;;;;5164188;27;46706;-62
2023/03/11 13:31:03;;;;;;;1.25;0.80;;;;;;;;;;5165174;27;20062;-62
2023/03/11 13:33:44;;;;;;;6.18;1.00;;;;;;;;;;5163633;27;20055;-61
2023/03/11 13:36:23;;;;;;;7.47;1.50;;;;;;;;;;5156384;27;20196;-61
2023/03/11 13:39:10;;;;;;;3.85;0.80;;;;;;;;;;5152515;27;20051;-62
2023/03/11 13:41:39;;;;;;;4.05;0.80;;;;;;;;;;5160652;27;20047;-62
2023/03/11 13:44:12;;;;;;;3.60;1.00;;;;;;;;;;5151576;27;20058;-62
2023/03/11 13:46:40;;;;;;;5.80;1.13;;;;;;;;;;5143046;27;20130;-62
2023/03/11 13:49:12;;;;;;;6.38;0.95;;;;;;;;;;5150900;27;20419;-63
2023/03/11 13:51:41;;;;;;;3.85;0.90;;;;;;;;;;5156032;27;20051;-61
2023/03/11 13:54:21;;;;;;;1.58;0.73;;;;;;;;;;5145687;27;20062;-63
2023/03/11 13:56:54;;;;;;;2.33;0.80;;;;;;;;;;5165301;27;20103;-62
2023/03/11 13:59:22;;;;;;;6.03;0.95;;;;;;;;;;5164197;27;20047;-62
2023/03/11 14:01:52;;;;;;;5.43;1.77;;;;;;;;;;5149659;27;20066;-63
2023/03/11 14:04:24;;;;;;;4.93;1.10;;;;;;;;;;5150597;27;20122;-63
2023/03/11 14:06:51;;;;;;;2.63;0.60;;;;;;;;;;5162965;27;20077;-62
2023/03/11 14:09:18;;;;;;;2.92;0.47;;;;;;;;;;5164022;27;20107;-62
2023/03/11 14:11:47;;;;;;;2.60;0.52;;;;;;;;;;5147606;27;20051;-62
2023/03/11 14:14:40;;;;;;;2.35;0.68;;;;;;;;;;5150403;27;20528;-62
2023/03/11 14:17:12;;;;;;;4.78;0.68;;;;;;;;;;5139597;27;20513;-62
2023/03/11 14:19:38;;;;;;;3.55;0.80;;;;;;;;;;5150709;27;20043;-64
2023/03/11 14:22:06;;;;;;;1.23;0.50;;;;;;;;;;5165511;27;20074;-62
2023/03/11 14:24:33;;;;;;;3.88;0.60;;;;;;;;;;5161280;27;20057;-62
2023/03/11 14:27:02;;;;;;;2.22;0.50;;;;;;;;;;5155788;27;20123;-63
2023/03/11 14:29:32;;;;;;;1.55;0.70;;;;;;;;;;5163334;27;20051;-62
2023/03/11 14:31:58;;;;;;;5.40;0.68;;;;;;;;;;5162414;27;20135;-61
2023/03/11 14:34:26;;;;;;;2.33;0.45;;;;;;;;;;5159630;27;20054;-61
2023/03/11 14:36:57;;;;;;;2.55;0.93;;;;;;;;;;5141847;27;20043;-61
2023/03/11 14:39:34;;;;;;;3.38;1.10;;;;;;;;;;5153100;27;20520;-60
2023/03/11 14:42:03;;;;;;;1.48;0.80;;;;;;;;;;5161307;27;20170;-61
2023/03/11 14:44:31;;;;;;;3.67;1.27;;;;;;;;;;5157015;27;20149;-64
2023/03/11 14:47:03;;;;;;;1.10;0.63;;;;;;;;;;5156000;27;20058;-63
2023/03/11 14:49:29;;;;;;;0.90;0.88;;;;;;;;;;5149354;27;20061;-62
2023/03/11 14:52:03;;;;;;;5.25;0.85;;;;;;;;;;5163544;27;20457;-62
2023/03/11 14:54:32;;;;;;;1.55;0.80;;;;;;;;;;5158614;27;20420;-61